Time;durP1;ratioP1;P1;durP2;ratioP2;P2;SDS_P1;SDS_P2;PMS_P1;PMS_P2;Temp;Humidity;BMP_temperature;BMP_pressure;BME280_temperature;BME280_humidity;BME280_pressure;Samples;Min_cycle;Max_cycle;Signal;HPM_P1;HPM_P2
2023/03/14 00:02:48;;;;;;;13.30;2.55;;;11.40;99.90;;;;;;4941449;28;39681;-81
2023/03/14 00:05:16;;;;;;;11.20;2.17;;;11.40;99.90;;;;;;4930706;28;38503;-78
2023/03/14 00:07:58;;;;;;;13.88;2.60;;;11.30;99.90;;;;;;4951298;28;37622;-80
2023/03/14 00:18:32;;;;;;;17.63;2.63;;;10.90;99.90;;;;;;5183967;23;20039;-79
2023/03/14 00:21:03;;;;;;;13.40;2.78;;;10.90;99.90;;;;;;4935027;28;40165;-80
2023/03/14 00:23:46;;;;;;;12.13;2.08;;;10.90;99.90;;;;;;4937915;28;49450;-80
2023/03/14 00:26:19;;;;;;;21.63;2.80;;;10.90;99.90;;;;;;4956039;28;39567;-79
2023/03/14 00:28:52;;;;;;;15.30;2.80;;;10.90;99.90;;;;;;4972211;28;37871;-80
2023/03/14 00:34:14;;;;;;;14.05;2.53;;;10.90;99.90;;;;;;4649905;23;20047;31
2023/03/14 00:36:55;;;;;;;;;;;10.90;99.90;;;;;;4918692;29;36825;-79
2023/03/14 00:40:07;;;;;;;18.33;2.63;;;10.80;99.90;;;;;;4895073;29;38756;-80
2023/03/14 00:42:44;;;;;;;14.90;3.37;;;10.70;99.90;;;;;;4897557;29;48756;-80
2023/03/14 00:45:24;;;;;;;15.77;3.07;;;10.70;99.90;;;;;;4898998;29;39815;-80
2023/03/14 00:48:01;;;;;;;12.17;3.00;;;10.60;99.90;;;;;;4892330;29;40318;-80
2023/03/14 00:50:28;;;;;;;14.47;2.70;;;10.60;99.90;;;;;;4901923;29;48419;-79
2023/03/14 00:53:21;;;;;;;12.80;2.30;;;10.60;99.90;;;;;;4904996;29;38865;-80
2023/03/14 00:56:02;;;;;;;12.43;2.60;;;10.60;99.90;;;;;;4903611;29;50322;-80
2023/03/14 00:58:44;;;;;;;16.10;2.97;;;10.60;99.90;;;;;;4915225;29;49380;-80
2023/03/14 01:01:16;;;;;;;17.00;3.87;;;10.60;99.90;;;;;;4894887;29;36676;-79
2023/03/14 01:03:56;;;;;;;12.43;2.33;;;10.60;99.90;;;;;;4894687;29;39257;-80
2023/03/14 01:06:25;;;;;;;17.47;2.67;;;10.60;99.90;;;;;;4888776;29;38529;-79
2023/03/14 01:08:52;;;;;;;16.47;2.57;;;10.60;99.90;;;;;;4911157;29;37605;-80
2023/03/14 01:11:31;;;;;;;18.63;2.23;;;10.60;99.90;;;;;;4883967;29;37928;-79
2023/03/14 01:14:06;;;;;;;17.70;2.87;;;10.60;99.90;;;;;;4913575;29;39154;-80
2023/03/14 01:16:35;;;;;;;11.13;2.23;;;10.60;99.90;;;;;;4912653;29;47459;-79
2023/03/14 01:19:03;;;;;;;15.20;2.40;;;10.50;99.90;;;;;;4899804;29;37288;-80
2023/03/14 01:21:34;;;;;;;13.73;2.50;;;10.60;99.90;;;;;;4897963;29;47121;-79
2023/03/14 01:24:05;;;;;;;15.93;2.23;;;10.60;99.90;;;;;;4903871;29;38862;-80
2023/03/14 01:26:43;;;;;;;19.20;3.43;;;10.60;99.90;;;;;;4886024;29;47128;-80
2023/03/14 01:29:16;;;;;;;15.57;2.03;;;10.60;99.90;;;;;;4889143;29;38345;-80
2023/03/14 01:31:42;;;;;;;15.95;2.28;;;10.70;99.90;;;;;;4897762;29;35020;-78
2023/03/14 01:34:08;;;;;;;12.50;2.23;;;10.70;99.90;;;;;;4908464;29;39023;-79
2023/03/14 01:36:35;;;;;;;11.27;1.87;;;10.70;99.90;;;;;;4902165;29;38653;-80
2023/03/14 01:39:01;;;;;;;16.10;2.47;;;10.70;99.90;;;;;;4908898;29;39563;-80
2023/03/14 01:41:31;;;;;;;18.77;2.57;;;10.70;99.90;;;;;;4910191;29;50152;-80
2023/03/14 01:44:13;;;;;;;13.07;2.27;;;10.60;99.90;;;;;;4915488;29;39557;-80
2023/03/14 01:46:47;;;;;;;13.30;2.40;;;10.60;99.90;;;;;;4895518;29;47506;-80
2023/03/14 01:49:20;;;;;;;18.43;2.60;;;10.60;99.90;;;;;;4898447;29;37760;-79
2023/03/14 01:52:07;;;;;;;14.53;2.10;;;10.50;99.90;;;;;;4908845;29;37050;-78
2023/03/14 01:54:40;;;;;;;13.67;1.93;;;10.50;99.90;;;;;;4885829;29;47933;-77
2023/03/14 01:57:21;;;;;;;12.53;2.13;;;10.50;99.90;;;;;;4910330;29;37864;-78
2023/03/14 01:59:53;;;;;;;14.13;2.63;;;10.40;99.90;;;;;;4913123;29;38126;-78
2023/03/14 02:02:20;;;;;;;12.33;1.77;;;10.40;99.90;;;;;;5421847;23;36259;-77
2023/03/14 02:04:47;;;;;;;13.70;2.27;;;10.40;99.90;;;;;;4961012;28;38567;-79
2023/03/14 02:07:25;;;;;;;9.73;1.73;;;10.40;99.90;;;;;;4977024;28;38641;-79
2023/03/14 02:09:52;;;;;;;11.90;2.33;;;10.30;99.90;;;;;;4967799;28;37975;-79
2023/03/14 02:12:19;;;;;;;8.03;1.33;;;10.30;99.90;;;;;;4978256;28;36999;-79
2023/03/14 02:14:47;;;;;;;15.27;1.80;;;10.40;99.90;;;;;;4971618;28;37587;-80
2023/03/14 02:17:16;;;;;;;7.90;1.80;;;10.40;99.90;;;;;;4993562;28;39607;-80
2023/03/14 02:20:05;;;;;;;8.40;1.83;;;10.40;99.90;;;;;;4989252;28;39795;-78
2023/03/14 02:22:31;;;;;;;11.67;2.20;;;10.40;99.90;;;;;;4975120;28;48696;-77
2023/03/14 02:25:07;;;;;;;8.80;2.40;;;10.40;99.90;;;;;;4964430;28;39055;-80
2023/03/14 02:27:34;;;;;;;16.03;2.60;;;10.50;99.90;;;;;;4966751;28;47019;-80
2023/03/14 02:30:09;;;;;;;16.87;2.53;;;10.40;99.90;;;;;;4982303;28;36519;-77
2023/03/14 02:32:44;;;;;;;13.97;2.63;;;10.40;99.90;;;;;;4987550;28;48688;-80
2023/03/14 02:35:13;;;;;;;12.53;2.93;;;10.50;99.90;;;;;;4967123;28;38064;-79
2023/03/14 02:38:31;;;;;;;12.13;2.57;;;10.40;99.90;;;;;;4983586;28;38741;-79
2023/03/14 02:40:58;;;;;;;13.30;2.07;;;10.40;99.90;;;;;;4916865;29;48702;-79
2023/03/14 02:43:25;;;;;;;13.10;2.53;;;10.40;99.90;;;;;;4919270;29;37609;-79
2023/03/14 02:45:52;;;;;;;16.33;2.50;;;10.30;99.90;;;;;;4934603;28;37827;-79
2023/03/14 02:48:29;;;;;;;11.73;2.17;;;10.30;99.90;;;;;;4989385;28;37219;-79
2023/03/14 02:50:58;;;;;;;12.77;3.00;;;10.30;99.90;;;;;;4978942;28;38279;-79
2023/03/14 02:53:32;;;;;;;12.70;2.50;;;10.30;99.90;;;;;;4977107;28;36190;-77
2023/03/14 02:56:01;;;;;;;15.87;2.73;;;10.30;99.90;;;;;;4981757;28;37209;-80
2023/03/14 02:58:39;;;;;;;19.10;2.97;;;10.30;99.90;;;;;;4957474;28;48183;-80
2023/03/14 03:01:15;;;;;;;19.23;4.53;;;10.30;99.90;;;;;;4984691;28;39705;-80
2023/03/14 03:03:41;;;;;;;14.68;2.53;;;10.30;99.90;;;;;;4958525;28;36138;-80
2023/03/14 03:06:07;;;;;;;13.18;2.85;;;10.40;99.90;;;;;;4986394;28;40203;-78
2023/03/14 03:08:34;;;;;;;14.60;2.87;;;10.40;99.90;;;;;;4981214;28;38704;-80
2023/03/14 03:11:01;;;;;;;12.82;3.15;;;10.30;99.90;;;;;;4964433;28;37332;-79
2023/03/14 03:13:27;;;;;;;17.30;3.05;;;10.30;99.90;;;;;;4960501;28;47178;-78
2023/03/14 03:16:18;;;;;;;10.30;2.38;;;10.40;99.90;;;;;;4969416;28;38688;-80
2023/03/14 03:18:49;;;;;;;14.80;2.55;;;10.40;99.90;;;;;;4957422;28;48089;-80
2023/03/14 03:21:18;;;;;;;12.98;2.60;;;10.40;99.90;;;;;;4967057;28;39272;-80
2023/03/14 03:23:46;;;;;;;14.90;3.22;;;10.40;99.90;;;;;;4970568;28;36959;-79
2023/03/14 03:26:13;;;;;;;12.60;2.60;;;10.40;99.90;;;;;;4969121;28;38292;-80
2023/03/14 03:28:45;;;;;;;21.77;3.30;;;10.40;99.90;;;;;;5000274;28;39597;-80
2023/03/14 03:31:13;;;;;;;15.75;3.05;;;10.40;99.90;;;;;;4938229;28;38687;-81
2023/03/14 03:33:39;;;;;;;12.30;2.45;;;10.40;99.90;;;;;;4979987;28;36586;-79
2023/03/14 03:36:06;;;;;;;14.63;2.40;;;10.50;99.90;;;;;;4980752;28;39509;-80
2023/03/14 03:38:32;;;;;;;16.60;2.65;;;10.50;99.90;;;;;;4958656;28;37739;-80
2023/03/14 03:40:58;;;;;;;16.67;2.85;;;10.50;99.90;;;;;;5043541;23;39588;-79
2023/03/14 03:43:24;;;;;;;11.15;2.00;;;10.50;99.90;;;;;;4942142;28;35566;-78
2023/03/14 03:45:56;;;;;;;10.90;1.88;;;10.50;99.90;;;;;;4952377;28;37413;-80
2023/03/14 03:48:24;;;;;;;10.63;2.53;;;10.40;99.90;;;;;;4964225;28;38111;-79
2023/03/14 03:50:53;;;;;;;14.90;2.20;;;10.40;99.90;;;;;;4951037;28;37274;-80
2023/03/14 03:53:19;;;;;;;16.02;2.53;;;10.40;99.90;;;;;;4951854;28;38911;-79
2023/03/14 03:55:46;;;;;;;15.13;3.08;;;10.40;99.90;;;;;;4937325;28;37227;-80
2023/03/14 03:58:12;;;;;;;12.25;2.95;;;10.50;99.90;;;;;;4917639;28;39222;-80
2023/03/14 04:00:38;;;;;;;11.77;2.38;;;10.50;99.90;;;;;;4961126;28;38594;-79
2023/03/14 04:03:06;;;;;;;14.20;2.58;;;10.50;99.90;;;;;;4910765;28;35924;-79
2023/03/14 04:05:34;;;;;;;13.60;2.40;;;10.50;99.90;;;;;;4966996;28;39239;-80
2023/03/14 04:08:04;;;;;;;13.73;2.10;;;10.50;99.90;;;;;;4952599;28;40079;-80
2023/03/14 04:10:33;;;;;;;12.80;2.33;;;10.40;99.90;;;;;;4943870;28;48560;-79
2023/03/14 04:12:59;;;;;;;11.30;2.45;;;10.30;99.90;;;;;;4954146;28;37853;-78
2023/03/14 04:15:26;;;;;;;12.77;2.22;;;10.30;99.90;;;;;;4947690;28;37952;-78
2023/03/14 04:17:56;;;;;;;11.40;2.20;;;10.20;99.90;;;;;;4952229;28;37316;-79
2023/03/14 04:20:22;;;;;;;15.53;2.10;;;10.20;99.90;;;;;;4943062;28;38098;-78
2023/03/14 04:22:48;;;;;;;8.17;1.83;;;10.20;99.90;;;;;;4960416;28;38117;-78
2023/03/14 04:25:17;;;;;;;14.50;2.70;;;10.10;99.90;;;;;;4938524;28;37650;-78
2023/03/14 04:27:43;;;;;;;14.80;2.42;;;10.00;99.90;;;;;;4936320;28;37234;-79
2023/03/14 04:30:10;;;;;;;15.87;1.97;;;9.90;99.90;;;;;;4956135;28;39215;-79
2023/03/14 04:32:38;;;;;;;10.30;2.00;;;9.90;99.90;;;;;;4935667;28;36293;-78
2023/03/14 04:35:05;;;;;;;9.47;2.40;;;9.90;99.90;;;;;;4935653;28;38846;-78
2023/03/14 04:37:31;;;;;;;11.17;2.27;;;9.90;99.90;;;;;;4958113;28;38338;-77
2023/03/14 04:39:57;;;;;;;9.67;1.87;;;9.90;99.90;;;;;;4938502;28;37009;-77
2023/03/14 04:42:24;;;;;;;10.17;1.73;;;10.00;99.90;;;;;;4934426;28;35928;-77
2023/03/14 04:44:50;;;;;;;9.13;1.67;;;9.90;99.90;;;;;;4930666;28;38748;-76
2023/03/14 04:47:16;;;;;;;11.43;2.00;;;9.90;99.90;;;;;;4948527;28;36634;-77
2023/03/14 04:49:42;;;;;;;5.77;1.70;;;9.90;99.90;;;;;;4944112;28;37995;-76
2023/03/14 04:52:08;;;;;;;8.87;2.23;;;9.90;99.90;;;;;;4945484;28;36695;-76
2023/03/14 04:54:34;;;;;;;6.97;1.73;;;9.90;99.90;;;;;;4930146;28;37889;-76
2023/03/14 04:57:00;;;;;;;8.20;2.10;;;9.90;99.90;;;;;;4930682;28;36943;-77
2023/03/14 04:59:26;;;;;;;7.63;2.13;;;9.90;99.90;;;;;;4928759;28;36673;-76
2023/03/14 05:01:52;;;;;;;10.13;1.97;;;9.80;99.90;;;;;;4927976;28;36006;-77
2023/03/14 05:04:19;;;;;;;10.93;2.63;;;9.80;99.90;;;;;;4946801;28;38410;-77
2023/03/14 05:06:45;;;;;;;9.97;2.13;;;9.80;99.90;;;;;;4929045;28;37092;-76
2023/03/14 05:09:11;;;;;;;9.47;2.37;;;9.80;99.90;;;;;;4928105;28;37120;-77
2023/03/14 05:11:37;;;;;;;7.90;2.23;;;9.80;99.90;;;;;;4931779;28;36343;-77
2023/03/14 05:14:03;;;;;;;8.80;3.30;;;9.80;99.90;;;;;;4927134;28;38843;-77
2023/03/14 05:16:30;;;;;;;10.40;2.47;;;9.70;99.90;;;;;;4928777;28;37868;-75
2023/03/14 05:18:56;;;;;;;12.17;2.90;;;9.70;99.90;;;;;;4924117;28;38326;-76
2023/03/14 05:21:22;;;;;;;11.73;3.40;;;9.60;99.90;;;;;;4927284;28;36101;-76
2023/03/14 05:23:48;;;;;;;9.33;2.87;;;9.60;99.90;;;;;;4943696;28;38353;-76
2023/03/14 05:26:16;;;;;;;9.03;3.03;;;9.60;99.90;;;;;;4924181;28;37353;-75
2023/03/14 05:28:43;;;;;;;10.10;2.90;;;9.60;99.90;;;;;;4941078;28;40396;-75
2023/03/14 05:31:10;;;;;;;8.33;3.17;;;9.60;99.90;;;;;;4925646;28;37379;-74
2023/03/14 05:33:36;;;;;;;8.40;3.00;;;9.60;99.90;;;;;;4942879;28;38381;-75
2023/03/14 05:36:02;;;;;;;10.77;3.57;;;9.60;99.90;;;;;;4945081;28;39064;-75
2023/03/14 05:38:28;;;;;;;8.33;2.90;;;9.60;99.90;;;;;;4932926;28;37939;-75
2023/03/14 05:40:54;;;;;;;8.37;2.27;;;9.50;99.90;;;;;;4948385;28;37664;-75
2023/03/14 05:43:20;;;;;;;4.37;1.60;;;9.10;99.90;;;;;;4933698;28;38686;-75
2023/03/14 05:45:46;;;;;;;5.03;1.23;;;8.90;99.90;;;;;;4929633;28;37485;-75
2023/03/14 05:48:13;;;;;;;7.17;1.37;;;8.80;99.90;;;;;;4935555;28;36728;-76
2023/03/14 05:50:39;;;;;;;9.17;1.30;;;8.60;99.90;;;;;;4938996;28;36201;-75
2023/03/14 05:53:05;;;;;;;9.90;1.60;;;8.40;99.90;;;;;;4929665;28;35928;-75
2023/03/14 05:55:31;;;;;;;11.53;2.10;;;8.40;99.90;;;;;;4950284;28;39142;-75
2023/03/14 05:57:57;;;;;;;9.87;2.17;;;8.30;99.90;;;;;;4952121;28;37844;-75
2023/03/14 06:00:23;;;;;;;15.07;2.27;;;8.30;99.90;;;;;;4934451;28;35923;-75
2023/03/14 06:02:49;;;;;;;8.57;2.20;;;8.20;99.90;;;;;;4934534;28;39013;-76
2023/03/14 06:05:15;;;;;;;8.23;2.37;;;8.20;99.90;;;;;;4929415;28;37562;-75
2023/03/14 06:07:41;;;;;;;16.60;2.80;;;8.20;99.90;;;;;;4932079;28;36759;-77
2023/03/14 06:10:08;;;;;;;12.60;2.40;;;8.10;99.90;;;;;;4929035;28;36561;-76
2023/03/14 06:12:34;;;;;;;12.17;2.83;;;8.10;99.90;;;;;;4933034;28;37928;-78
2023/03/14 06:15:00;;;;;;;12.83;2.50;;;8.10;99.90;;;;;;4948869;28;38341;-74
2023/03/14 06:17:26;;;;;;;11.17;1.90;;;8.10;99.90;;;;;;4944997;28;38414;-72
2023/03/14 06:19:52;;;;;;;9.93;2.50;;;8.10;99.90;;;;;;4927507;28;37138;-71
2023/03/14 06:22:19;;;;;;;12.93;2.03;;;8.10;99.90;;;;;;4929850;28;40833;-77
2023/03/14 06:24:45;;;;;;;7.53;2.17;;;8.00;99.90;;;;;;4928080;28;38805;-79
2023/03/14 06:27:11;;;;;;;8.80;1.93;;;8.00;99.90;;;;;;4928470;28;40293;-75
2023/03/14 06:29:37;;;;;;;11.73;1.90;;;7.90;99.90;;;;;;4947115;28;38324;-75
2023/03/14 06:32:05;;;;;;;14.27;2.13;;;7.90;99.90;;;;;;4946678;28;39102;-76
2023/03/14 06:34:31;;;;;;;11.33;2.13;;;7.90;99.90;;;;;;4928621;28;37355;-76
2023/03/14 06:36:57;;;;;;;11.67;1.57;;;7.80;99.90;;;;;;4949556;28;37787;-75
2023/03/14 06:39:23;;;;;;;5.80;1.30;;;7.80;99.90;;;;;;4945175;28;37305;-77
2023/03/14 06:41:49;;;;;;;10.03;1.43;;;7.70;99.90;;;;;;4921963;28;38075;-76
2023/03/14 06:44:15;;;;;;;13.37;3.00;;;7.70;99.90;;;;;;4903211;28;38529;-75
2023/03/14 06:46:41;;;;;;;13.37;1.67;;;7.70;99.90;;;;;;4910943;28;37929;-74
2023/03/14 06:49:07;;;;;;;14.33;1.60;;;7.70;99.90;;;;;;4922181;28;36367;-74
2023/03/14 06:51:36;;;;;;;11.00;1.60;;;7.60;99.90;;;;;;4916581;28;37849;-74
2023/03/14 06:54:02;;;;;;;14.37;2.27;;;7.70;99.90;;;;;;4916009;28;37570;-74
2023/03/14 06:56:28;;;;;;;16.30;2.30;;;7.60;99.90;;;;;;4905183;28;38495;-74
2023/03/14 06:58:54;;;;;;;17.03;2.17;;;7.60;99.90;;;;;;4908063;28;38821;-77
2023/03/14 07:01:24;;;;;;;12.50;2.23;;;7.60;99.90;;;;;;4909071;28;39158;-77
2023/03/14 07:03:50;;;;;;;19.47;7.53;;;7.70;99.90;;;;;;4914726;28;38874;-77
2023/03/14 07:06:16;;;;;;;11.70;1.80;;;7.60;99.90;;;;;;4913052;28;38436;-77
2023/03/14 07:08:45;;;;;;;10.07;2.13;;;7.70;99.90;;;;;;4913498;28;35942;-77
2023/03/14 07:11:12;;;;;;;9.70;1.10;;;7.50;99.90;;;;;;4910898;28;37560;-76
2023/03/14 07:13:39;;;;;;;9.37;1.60;;;7.50;99.90;;;;;;4914518;29;38244;-77
2023/03/14 07:16:06;;;;;;;8.77;1.50;;;7.50;99.90;;;;;;4918700;28;37359;-74
2023/03/14 07:18:37;;;;;;;10.20;1.07;;;7.50;99.90;;;;;;4925189;29;36152;-79
2023/03/14 07:21:03;;;;;;;119.57;86.63;;;7.50;99.90;;;;;;4912172;28;37638;-77
2023/03/14 07:23:30;;;;;;;11.17;2.70;;;7.50;99.90;;;;;;4919689;28;38673;-77
2023/03/14 07:25:56;;;;;;;6.40;0.80;;;7.50;99.90;;;;;;4915726;28;36456;-78
2023/03/14 07:28:23;;;;;;;3.60;0.90;;;7.50;99.90;;;;;;4915618;28;36003;-77
2023/03/14 07:30:49;;;;;;;17.13;11.73;;;7.50;99.90;;;;;;4913747;29;39569;-76
2023/03/14 07:33:16;;;;;;;8.83;2.10;;;7.50;99.90;;;;;;4915600;29;39284;-76
2023/03/14 07:35:42;;;;;;;7.90;1.70;;;7.50;99.90;;;;;;4915071;28;37557;-76
2023/03/14 07:38:08;;;;;;;3.63;1.17;;;7.50;99.90;;;;;;4916263;29;36778;-77
2023/03/14 07:40:34;;;;;;;8.63;2.20;;;7.50;99.90;;;;;;4924214;28;38051;-77
2023/03/14 07:43:00;;;;;;;35.70;23.20;;;7.60;99.90;;;;;;4919542;28;36657;-76
2023/03/14 07:45:26;;;;;;;7.83;1.80;;;7.60;99.90;;;;;;4920348;28;37527;-76
2023/03/14 07:47:54;;;;;;;8.83;1.60;;;7.70;99.90;;;;;;4938896;28;37007;-76
2023/03/14 07:50:20;;;;;;;8.37;1.53;;;7.60;99.90;;;;;;4920039;28;37823;-77
2023/03/14 07:52:46;;;;;;;11.13;1.40;;;7.60;99.90;;;;;;4920130;28;37296;-77
2023/03/14 07:55:13;;;;;;;11.67;2.10;;;7.60;99.90;;;;;;4919684;28;37243;-76
2023/03/14 07:57:39;;;;;;;11.13;2.10;;;7.70;99.90;;;;;;4924337;28;36537;-78
2023/03/14 08:00:06;;;;;;;59.37;43.13;;;7.60;99.90;;;;;;4936582;28;38711;-77
2023/03/14 08:02:32;;;;;;;15.13;2.90;;;7.60;99.90;;;;;;4929816;28;42414;-76
2023/03/14 08:04:59;;;;;;;22.73;2.80;;;7.60;99.90;;;;;;4906310;28;38828;-76
2023/03/14 08:07:25;;;;;;;11.37;1.80;;;7.60;99.90;;;;;;4929354;28;36081;-77
2023/03/14 08:09:51;;;;;;;16.57;2.50;;;7.60;99.90;;;;;;4927235;28;38279;-76
2023/03/14 08:12:17;;;;;;;12.90;1.70;;;7.60;99.90;;;;;;4926162;28;38174;-76
2023/03/14 08:14:43;;;;;;;13.07;2.53;;;7.50;99.90;;;;;;4925498;28;38211;-76
2023/03/14 08:17:09;;;;;;;9.77;2.60;;;7.60;99.90;;;;;;4912672;28;37577;-75
2023/03/14 08:19:35;;;;;;;11.23;2.90;;;7.40;99.90;;;;;;4916612;28;38159;-77
2023/03/14 08:22:01;;;;;;;12.53;1.67;;;7.20;99.90;;;;;;4930707;28;38646;-77
2023/03/14 08:24:27;;;;;;;9.70;1.63;;;7.20;99.90;;;;;;4917976;28;47233;-76
2023/03/14 08:26:53;;;;;;;9.97;1.57;;;7.10;99.90;;;;;;4926172;28;37282;-76
2023/03/14 08:29:20;;;;;;;6.17;0.93;;;7.10;99.90;;;;;;4913521;28;37589;-76
2023/03/14 08:31:46;;;;;;;7.87;2.97;;;6.80;99.90;;;;;;4914655;28;37537;-76
2023/03/14 08:34:12;;;;;;;14.63;1.70;;;6.70;99.90;;;;;;4931222;28;38149;-76
2023/03/14 08:36:38;;;;;;;9.10;1.40;;;6.60;99.90;;;;;;4931099;28;36739;-75
2023/03/14 08:39:06;;;;;;;9.30;1.03;;;6.60;99.90;;;;;;4936483;28;39591;-75
2023/03/14 08:41:39;;;;;;;6.60;1.30;;;6.70;99.90;;;;;;4910153;28;37578;-76
2023/03/14 08:44:09;;;;;;;58.53;41.83;;;6.80;99.90;;;;;;4932098;28;39722;-76
2023/03/14 08:46:35;;;;;;;9.27;1.83;;;6.80;99.90;;;;;;4915704;28;36393;-76
2023/03/14 08:49:02;;;;;;;7.40;0.90;;;6.80;99.90;;;;;;4932078;28;39565;-76
2023/03/14 08:51:28;;;;;;;4.60;1.17;;;6.80;99.90;;;;;;4935742;28;39065;-76
2023/03/14 08:53:54;;;;;;;8.73;1.37;;;6.90;99.90;;;;;;4916041;28;36937;-76
2023/03/14 08:56:21;;;;;;;9.00;1.47;;;6.80;99.90;;;;;;4916804;28;36345;-76
2023/03/14 08:58:47;;;;;;;16.70;4.20;;;6.70;99.90;;;;;;4915905;28;37355;-75
2023/03/14 09:01:13;;;;;;;12.10;1.90;;;6.60;99.90;;;;;;4930030;28;37995;-76
2023/03/14 09:03:39;;;;;;;13.53;2.20;;;6.70;99.90;;;;;;4913049;28;37270;-76
2023/03/14 09:06:08;;;;;;;13.90;3.17;;;7.00;99.90;;;;;;4934004;28;37803;-74
2023/03/14 09:08:34;;;;;;;12.87;2.30;;;6.90;99.90;;;;;;4918538;28;37500;-74
2023/03/14 09:11:00;;;;;;;12.03;2.20;;;6.80;99.90;;;;;;4934749;28;39137;-75
2023/03/14 09:13:26;;;;;;;11.30;2.00;;;6.70;99.90;;;;;;4909565;28;37279;-76
2023/03/14 09:15:56;;;;;;;10.40;1.53;;;6.90;99.90;;;;;;4914695;28;37505;-75
2023/03/14 09:18:22;;;;;;;17.80;2.40;;;7.10;99.90;;;;;;4911536;28;37326;-75
2023/03/14 09:20:49;;;;;;;20.53;2.63;;;7.20;99.90;;;;;;4915329;28;38810;-75
2023/03/14 09:23:16;;;;;;;15.80;2.13;;;7.30;99.90;;;;;;4918064;28;35908;-74
2023/03/14 09:25:42;;;;;;;17.10;1.80;;;7.30;99.90;;;;;;4915335;28;36168;-76
2023/03/14 09:28:08;;;;;;;11.93;2.00;;;7.40;99.90;;;;;;4912556;28;37868;-75
2023/03/14 09:30:34;;;;;;;19.00;4.63;;;7.60;99.90;;;;;;4914108;28;37425;-74
2023/03/14 09:33:00;;;;;;;16.47;2.60;;;7.80;99.90;;;;;;4911562;28;36343;-73
2023/03/14 09:35:26;;;;;;;18.13;2.33;;;8.10;99.90;;;;;;4935282;28;36539;-75
2023/03/14 09:37:52;;;;;;;15.20;2.13;;;8.30;99.90;;;;;;4926594;28;39449;-74
2023/03/14 09:40:20;;;;;;;28.70;4.17;;;8.30;99.90;;;;;;4931120;28;38969;-76
2023/03/14 09:42:50;;;;;;;27.37;3.37;;;8.40;99.90;;;;;;4910456;28;37136;-74
2023/03/14 09:45:27;;;;;;;19.93;2.93;;;8.30;99.90;;;;;;4913620;28;37691;-74
2023/03/14 09:47:55;;;;;;;23.23;3.53;;;8.20;99.90;;;;;;4932621;28;39311;-74
2023/03/14 09:50:21;;;;;;;30.40;3.83;;;8.00;99.90;;;;;;4930629;28;37559;-75
2023/03/14 09:52:55;;;;;;;14.10;2.43;;;7.60;99.90;;;;;;4915581;28;37024;-74
2023/03/14 09:55:22;;;;;;;23.30;3.33;;;7.30;99.90;;;;;;4931822;28;36933;-74
2023/03/14 09:57:54;;;;;;;15.83;2.33;;;7.10;99.90;;;;;;4907938;28;37246;-74
2023/03/14 10:00:25;;;;;;;16.17;2.47;;;6.80;99.90;;;;;;4913474;28;37163;-75
2023/03/14 10:02:55;;;;;;;16.57;2.90;;;6.80;99.90;;;;;;4928796;28;37493;-75
2023/03/14 10:05:24;;;;;;;16.17;3.17;;;6.60;99.90;;;;;;4924810;28;37799;-74
2023/03/14 10:07:50;;;;;;;22.07;2.90;;;6.70;99.90;;;;;;4914546;28;40152;-74
2023/03/14 10:10:20;;;;;;;19.50;2.60;;;6.80;99.90;;;;;;4914418;28;38982;-74
2023/03/14 10:12:55;;;;;;;16.87;2.40;;;6.90;99.90;;;;;;4914527;28;38147;-75
2023/03/14 10:15:27;;;;;;;20.63;2.70;;;7.10;99.90;;;;;;4917994;28;33769;-73
2023/03/14 10:17:53;;;;;;;19.48;3.13;;;7.40;99.90;;;;;;4916162;28;37492;-75
2023/03/14 10:20:38;;;;;;;20.43;2.57;;;7.70;99.90;;;;;;4911741;28;37240;-75
2023/03/14 10:23:06;;;;;;;17.33;2.70;;;7.80;99.90;;;;;;4926744;28;37740;-73
2023/03/14 10:25:35;;;;;;;25.90;3.93;;;7.70;99.90;;;;;;4914184;28;35971;-75
2023/03/14 10:28:03;;;;;;;26.43;3.77;;;7.70;99.90;;;;;;4913698;28;37543;-74
2023/03/14 10:30:50;;;;;;;24.63;3.00;;;7.90;99.90;;;;;;4935155;28;37393;-74
2023/03/14 10:33:25;;;;;;;28.97;3.77;;;7.90;99.90;;;;;;4910195;28;38212;-73
2023/03/14 10:35:59;;;;;;;20.03;3.83;;;8.00;99.90;;;;;;4932398;28;36652;-74
2023/03/14 10:38:30;;;;;;;22.63;3.67;;;8.10;99.90;;;;;;4911524;28;38995;-72
2023/03/14 10:40:58;;;;;;;26.93;4.57;;;8.20;99.90;;;;;;4911312;28;36967;-75
2023/03/14 10:43:33;;;;;;;27.30;4.33;;;8.20;99.90;;;;;;4916556;28;38813;-74
2023/03/14 10:46:17;;;;;;;23.90;3.80;;;8.10;99.90;;;;;;4912854;28;36807;-73
2023/03/14 10:48:45;;;;;;;18.33;3.30;;;7.90;99.90;;;;;;4925898;28;46674;-74
2023/03/14 10:51:18;;;;;;;28.83;3.83;;;7.90;99.90;;;;;;4918842;28;38283;-75
2023/03/14 10:53:47;;;;;;;20.47;3.97;;;8.10;99.90;;;;;;4912888;28;37876;-74
2023/03/14 10:56:24;;;;;;;27.17;4.50;;;8.10;99.90;;;;;;4919139;28;35894;-73
2023/03/14 10:58:55;;;;;;;30.17;4.40;;;8.00;99.90;;;;;;4915106;28;39216;-75
2023/03/14 11:01:37;;;;;;;23.00;3.60;;;8.00;99.90;;;;;;4916864;28;38138;-75
2023/03/14 11:04:21;;;;;;;22.47;3.27;;;8.30;99.90;;;;;;4917615;28;37766;-74
2023/03/14 11:07:09;;;;;;;28.00;3.70;;;8.40;99.90;;;;;;4921019;28;36135;-75
2023/03/14 11:09:47;;;;;;;32.13;5.10;;;8.20;99.90;;;;;;4917131;28;49113;-76
2023/03/14 11:12:25;;;;;;;20.17;3.30;;;8.20;99.90;;;;;;4918783;28;37255;-76
2023/03/14 11:14:59;;;;;;;28.33;4.90;;;8.20;99.90;;;;;;4915630;28;37436;-76
2023/03/14 11:17:38;;;;;;;23.20;2.83;;;8.30;99.90;;;;;;4902804;28;37648;-75
2023/03/14 11:20:24;;;;;;;26.20;3.60;;;8.40;99.90;;;;;;4912074;28;38550;-75
2023/03/14 11:23:14;;;;;;;27.67;4.23;;;8.50;99.90;;;;;;4911214;29;37485;-75
2023/03/14 11:26:08;;;;;;;22.83;3.60;;;8.70;99.90;;;;;;4910954;28;47189;-76
2023/03/14 11:28:42;;;;;;;22.53;3.53;;;8.80;99.90;;;;;;4905305;28;47142;-76
2023/03/14 11:31:28;;;;;;;19.47;3.43;;;9.00;99.90;;;;;;4906349;28;39237;-77
2023/03/14 11:34:12;;;;;;;25.00;3.40;;;9.00;99.90;;;;;;4911653;29;37602;-78
2023/03/14 11:37:00;;;;;;;19.37;2.60;;;8.80;99.90;;;;;;4910819;28;47784;-75
2023/03/14 11:39:41;;;;;;;20.07;3.57;;;8.90;99.90;;;;;;4915464;28;35729;-77
2023/03/14 11:42:15;;;;;;;20.00;2.97;;;8.90;99.90;;;;;;4915556;28;37759;-77
2023/03/14 11:44:44;;;;;;;22.50;3.13;;;9.00;99.90;;;;;;4933891;28;37314;-76
2023/03/14 11:47:18;;;;;;;19.33;2.83;;;9.10;99.90;;;;;;4916526;28;37041;-77
2023/03/14 11:49:53;;;;;;;13.20;2.23;;;9.20;99.90;;;;;;4933777;28;35936;-77
2023/03/14 11:52:41;;;;;;;17.27;2.57;;;9.40;99.90;;;;;;4916240;28;38552;-76
2023/03/14 11:55:12;;;;;;;11.10;1.83;;;9.40;99.90;;;;;;4922520;28;37225;-78
2023/03/14 11:57:40;;;;;;;10.50;2.17;;;9.40;99.90;;;;;;4921912;28;37102;-77
2023/03/14 12:00:15;;;;;;;10.40;1.63;;;9.80;99.90;;;;;;4922754;28;36182;-77
2023/03/14 12:02:47;;;;;;;16.47;2.67;;;9.70;99.90;;;;;;4924132;28;37573;-79
2023/03/14 12:05:35;;;;;;;8.93;1.73;;;10.00;99.90;;;;;;4924315;28;37220;-78
2023/03/14 12:08:07;;;;;;;16.20;2.97;;;10.00;99.90;;;;;;4932174;28;37895;-76
2023/03/14 12:10:49;;;;;;;14.52;2.28;;;10.10;99.90;;;;;;4932246;28;47316;-80
2023/03/14 12:13:16;;;;;;;17.30;2.97;;;9.80;99.90;;;;;;4938514;28;39420;-79
2023/03/14 12:16:03;;;;;;;16.33;2.73;;;9.80;99.90;;;;;;4935502;28;40173;-79
2023/03/14 12:18:30;;;;;;;13.87;2.47;;;9.60;99.90;;;;;;4920346;28;47555;-75
2023/03/14 12:21:00;;;;;;;15.67;3.00;;;9.40;99.90;;;;;;4918190;28;37462;-74
2023/03/14 12:23:33;;;;;;;19.17;3.60;;;9.80;99.90;;;;;;4936074;28;37667;-78
2023/03/14 12:26:18;;;;;;;12.07;2.90;;;10.10;99.90;;;;;;4923381;28;35350;-77
2023/03/14 12:29:07;;;;;;;18.03;3.27;;;10.00;99.90;;;;;;4932784;28;48487;-77
2023/03/14 12:31:41;;;;;;;16.33;2.37;;;10.00;99.90;;;;;;4922185;28;48282;-76
2023/03/14 12:34:09;;;;;;;12.30;2.20;;;9.90;99.90;;;;;;4929831;28;39463;-74
2023/03/14 12:36:51;;;;;;;13.43;1.90;;;9.70;99.90;;;;;;4913650;28;37221;-76
2023/03/14 12:39:22;;;;;;;12.87;2.13;;;9.40;99.90;;;;;;4914602;28;36710;-76
2023/03/14 12:41:53;;;;;;;13.20;2.20;;;9.50;99.90;;;;;;4913147;29;36517;-75
2023/03/14 12:44:31;;;;;;;9.50;1.87;;;9.60;99.90;;;;;;4910423;28;38471;-76
2023/03/14 12:47:21;;;;;;;12.10;3.10;;;9.50;99.90;;;;;;4911722;28;37098;-75
2023/03/14 12:49:50;;;;;;;15.93;2.17;;;9.40;99.90;;;;;;4909399;28;46983;-76
2023/03/14 12:52:21;;;;;;;11.93;2.10;;;9.30;99.90;;;;;;4908916;29;36310;-75
2023/03/14 12:54:56;;;;;;;11.93;2.30;;;9.10;99.90;;;;;;4907593;28;38104;-73
2023/03/14 12:57:38;;;;;;;18.37;2.10;;;9.00;99.90;;;;;;4910501;28;38857;-75
2023/03/14 13:00:21;;;;;;;13.70;2.37;;;9.00;99.90;;;;;;4912781;28;37927;-76
2023/03/14 13:02:49;;;;;;;11.30;1.90;;;8.90;99.90;;;;;;4913188;28;47406;-78
2023/03/14 13:05:22;;;;;;;12.43;2.00;;;9.00;99.90;;;;;;4914413;28;39817;-77
2023/03/14 13:07:48;;;;;;;8.93;2.00;;;9.10;99.90;;;;;;4916072;28;37873;-77
2023/03/14 13:10:27;;;;;;;9.80;1.47;;;9.20;99.90;;;;;;4915161;28;36798;-76
2023/03/14 13:13:11;;;;;;;6.60;1.50;;;9.10;99.90;;;;;;4910525;28;37059;-75
2023/03/14 13:15:43;;;;;;;9.53;1.70;;;8.80;99.90;;;;;;4910799;28;47075;-76